createdAt,value
2018-04-16T00:00:12.502Z,23.03
2018-04-16T00:02:38.917Z,20.90
2018-04-16T00:05:05.391Z,21.30
2018-04-16T00:07:31.728Z,22.87
2018-04-16T00:09:58.114Z,24.27
2018-04-16T00:12:24.478Z,21.87
2018-04-16T00:14:50.870Z,22.70
2018-04-16T00:17:17.324Z,21.90
2018-04-16T00:19:43.708Z,24.47
2018-04-16T00:22:10.198Z,23.33
2018-04-16T00:24:36.586Z,23.70
2018-04-16T00:27:03.144Z,23.20
2018-04-16T00:29:29.500Z,22.07
2018-04-16T00:32:01.893Z,22.70
2018-04-16T00:34:34.256Z,23.10
2018-04-16T00:37:06.624Z,21.80
2018-04-16T00:39:39.056Z,21.70
2018-04-16T00:42:11.479Z,22.13
2018-04-16T00:44:43.861Z,20.60
2018-04-16T00:47:16.398Z,18.87
2018-04-16T00:49:48.721Z,20.33
2018-04-16T00:52:21.123Z,20.00
2018-04-16T00:54:53.598Z,19.00
2018-04-16T00:57:26.028Z,19.37
2018-04-16T00:59:58.339Z,21.20
2018-04-16T01:02:30.821Z,20.63
2018-04-16T01:05:03.415Z,19.77
2018-04-16T01:07:37.024Z,19.27
2018-04-16T01:10:09.470Z,19.50
2018-04-16T01:12:41.875Z,19.27
2018-04-16T01:15:14.285Z,20.23
2018-04-16T01:17:46.676Z,19.80
2018-04-16T01:20:19.196Z,20.00
2018-04-16T01:22:51.685Z,20.13
2018-04-16T01:25:24.032Z,20.40
2018-04-16T01:27:56.496Z,20.27
2018-04-16T01:30:28.907Z,18.13
2018-04-16T01:33:01.271Z,21.50
2018-04-16T01:35:33.657Z,20.73
2018-04-16T01:38:06.168Z,20.50
2018-04-16T01:40:38.652Z,20.67
2018-04-16T01:46:16.411Z,21.43
2018-04-16T01:48:48.702Z,19.80
2018-04-16T01:51:21.071Z,20.17
2018-04-16T01:53:53.448Z,19.93
2018-04-16T01:56:25.865Z,21.00
2018-04-16T01:58:58.341Z,21.20
2018-04-16T02:01:30.672Z,20.10
2018-04-16T02:04:03.049Z,20.37
2018-04-16T02:06:35.632Z,20.23
2018-04-16T02:09:08.193Z,20.30
2018-04-16T02:11:40.550Z,20.43
2018-04-16T02:14:12.866Z,17.93
2018-04-16T02:16:45.303Z,19.13
2018-04-16T02:19:17.598Z,19.80
2018-04-16T02:21:49.997Z,18.37
2018-04-16T02:24:22.317Z,20.33
2018-04-16T02:26:54.750Z,18.33
2018-04-16T02:29:27.025Z,18.83
2018-04-16T02:31:59.539Z,18.73
2018-04-16T02:34:31.949Z,19.40
2018-04-16T02:37:04.376Z,20.20
2018-04-16T02:39:36.796Z,19.67
2018-04-16T02:42:09.200Z,19.97
2018-04-16T02:44:41.735Z,18.47
2018-04-16T02:47:14.248Z,19.10
2018-04-16T02:49:46.738Z,19.40
2018-04-16T02:52:19.244Z,20.20
2018-04-16T02:54:51.480Z,20.10
2018-04-16T02:57:23.892Z,21.47
2018-04-16T02:59:56.297Z,19.13
2018-04-16T03:02:28.616Z,19.17
2018-04-16T03:05:00.903Z,18.87
2018-04-16T03:07:33.505Z,18.53
2018-04-16T03:10:05.867Z,17.47
2018-04-16T03:12:38.271Z,18.83
2018-04-16T03:15:10.686Z,20.00
2018-04-16T03:17:43.300Z,18.87
2018-04-16T03:20:16.042Z,19.00
2018-04-16T03:22:48.531Z,19.73
2018-04-16T03:25:21.021Z,18.87
2018-04-16T03:27:53.551Z,18.33
2018-04-16T03:30:26.117Z,19.47
2018-04-16T03:32:58.598Z,20.13
2018-04-16T03:35:30.916Z,19.07
2018-04-16T03:38:03.771Z,19.03
2018-04-16T03:40:36.048Z,20.10
2018-04-16T03:43:08.650Z,20.47
2018-04-16T03:45:41.169Z,20.00
2018-04-16T03:48:13.502Z,19.07
2018-04-16T03:53:46.675Z,19.60
2018-04-16T03:56:13.243Z,18.87
2018-04-16T03:58:39.772Z,18.60
2018-04-16T04:01:06.500Z,20.80
2018-04-16T04:03:32.907Z,19.43
2018-04-16T04:05:59.347Z,19.00
2018-04-16T04:08:25.742Z,21.27
2018-04-16T04:10:52.278Z,18.63
2018-04-16T04:13:18.765Z,20.40
2018-04-16T04:15:45.202Z,21.37
2018-04-16T04:18:11.653Z,20.37
2018-04-16T04:20:38.188Z,21.73
2018-04-16T04:23:16.922Z,20.03
2018-04-16T04:25:55.517Z,19.73
2018-04-16T04:31:21.794Z,20.53
2018-04-16T04:33:48.194Z,21.53
2018-04-16T04:36:14.676Z,18.20
2018-04-16T04:38:41.176Z,20.07
2018-04-16T04:41:07.660Z,19.63
2018-04-16T04:43:34.091Z,19.70
2018-04-16T04:46:01.469Z,19.47
2018-04-16T04:48:28.034Z,18.33
2018-04-16T04:50:54.395Z,18.43
2018-04-16T04:53:21.566Z,17.97
2018-04-16T04:55:48.309Z,17.27
2018-04-16T04:58:14.735Z,17.87
2018-04-16T05:00:41.530Z,17.77
2018-04-16T05:03:08.016Z,16.50
2018-04-16T05:05:34.335Z,17.47
2018-04-16T05:08:00.789Z,16.37
2018-04-16T05:10:27.311Z,17.13
2018-04-16T05:12:53.649Z,15.50
2018-04-16T05:15:20.184Z,15.73
2018-04-16T05:17:47.020Z,16.23
2018-04-16T05:20:13.479Z,15.43
2018-04-16T05:22:39.844Z,14.73
2018-04-16T05:25:06.257Z,14.67
2018-04-16T05:27:32.764Z,14.67
2018-04-16T05:29:59.172Z,15.17
2018-04-16T05:32:25.699Z,14.90
2018-04-16T05:34:52.285Z,12.93
2018-04-16T05:37:18.852Z,14.73
2018-04-16T05:39:45.329Z,12.83
2018-04-16T05:42:11.663Z,12.07
2018-04-16T05:44:38.235Z,11.20
2018-04-16T05:47:04.793Z,11.73
2018-04-16T05:49:31.228Z,10.43
2018-04-16T05:51:57.640Z,10.03
2018-04-16T05:54:24.118Z,9.67
2018-04-16T05:56:50.506Z,10.40
2018-04-16T05:59:16.856Z,8.93
2018-04-16T06:01:43.415Z,9.40
2018-04-16T06:04:09.841Z,9.97
2018-04-16T06:06:36.286Z,9.90
2018-04-16T06:09:02.825Z,11.17
2018-04-16T06:11:29.183Z,9.83
2018-04-16T06:13:55.765Z,10.73
2018-04-16T06:16:22.297Z,14.10
2018-04-16T06:18:48.950Z,15.13
2018-04-16T06:21:15.325Z,13.40
2018-04-16T06:23:41.698Z,14.33
2018-04-16T06:26:08.180Z,15.30
2018-04-16T06:28:34.533Z,15.47
2018-04-16T06:31:00.930Z,16.37
2018-04-16T06:33:27.307Z,15.60
2018-04-16T06:35:53.747Z,16.03
2018-04-16T06:38:20.224Z,15.63
2018-04-16T06:40:46.581Z,15.60
2018-04-16T06:43:13.363Z,14.90
2018-04-16T06:45:39.782Z,15.10
2018-04-16T06:48:06.416Z,15.67
2018-04-16T06:50:32.825Z,15.90
2018-04-16T06:52:59.246Z,15.70
2018-04-16T06:55:25.764Z,15.93
2018-04-16T06:57:52.325Z,15.00
2018-04-16T07:00:20.059Z,16.10
2018-04-16T07:02:46.471Z,15.20
2018-04-16T07:05:12.805Z,16.87
2018-04-16T07:07:39.263Z,16.57
2018-04-16T07:10:05.737Z,15.43
2018-04-16T07:12:32.129Z,15.17
2018-04-16T07:14:58.506Z,16.07
2018-04-16T07:17:25.204Z,16.80
2018-04-16T07:19:51.660Z,15.90
2018-04-16T07:22:18.188Z,17.70
2018-04-16T07:24:44.652Z,18.23
2018-04-16T07:27:11.103Z,16.67
2018-04-16T07:29:37.510Z,16.80
2018-04-16T07:32:03.912Z,17.13
2018-04-16T07:34:30.273Z,15.00
2018-04-16T07:36:56.731Z,15.37
2018-04-16T07:39:23.090Z,15.67
2018-04-16T07:41:49.904Z,16.47
2018-04-16T07:44:16.316Z,16.13
2018-04-16T07:46:42.817Z,15.93
2018-04-16T07:49:09.211Z,16.80
2018-04-16T07:51:35.839Z,15.77
2018-04-16T07:54:02.631Z,15.00
2018-04-16T07:56:29.108Z,15.20
2018-04-16T07:58:55.590Z,15.43
2018-04-16T08:01:22.090Z,15.20
2018-04-16T08:03:48.559Z,12.27
2018-04-16T08:06:15.079Z,11.37
2018-04-16T08:08:41.542Z,9.27
2018-04-16T08:11:08.047Z,9.63
2018-04-16T08:13:34.628Z,7.27
2018-04-16T08:16:01.096Z,7.20
2018-04-16T08:18:28.046Z,7.87
2018-04-16T08:20:54.968Z,8.10
2018-04-16T08:23:21.390Z,8.00
2018-04-16T08:25:47.913Z,7.60
2018-04-16T08:28:14.457Z,6.83
2018-04-16T08:30:41.048Z,7.33
2018-04-16T08:33:07.436Z,7.17
2018-04-16T08:35:34.012Z,7.63
2018-04-16T08:38:00.565Z,7.60
2018-04-16T08:40:27.208Z,7.80
2018-04-16T08:42:53.656Z,7.37
2018-04-16T08:45:19.998Z,11.87
2018-04-16T08:47:46.510Z,10.83
2018-04-16T08:50:13.172Z,12.30
2018-04-16T08:52:39.932Z,12.83
2018-04-16T08:55:06.324Z,9.57
2018-04-16T08:57:32.791Z,14.67
2018-04-16T08:59:59.131Z,12.97
2018-04-16T09:02:25.677Z,11.77
2018-04-16T09:04:52.240Z,12.23
2018-04-16T09:07:18.709Z,13.37
2018-04-16T09:09:45.165Z,11.33
2018-04-16T09:12:11.983Z,7.87
2018-04-16T09:14:38.419Z,8.00
2018-04-16T09:17:04.896Z,8.67
2018-04-16T09:19:31.317Z,13.20
2018-04-16T09:21:57.685Z,11.97
2018-04-16T09:24:24.202Z,13.33
2018-04-16T09:26:50.687Z,11.27
2018-04-16T09:29:17.193Z,13.20
2018-04-16T09:31:43.597Z,12.60
2018-04-16T09:34:10.026Z,11.57
2018-04-16T09:36:36.499Z,12.63
2018-04-16T09:39:02.991Z,12.20
2018-04-16T09:41:29.455Z,11.57
2018-04-16T09:43:55.790Z,11.73
2018-04-16T09:46:22.321Z,11.13
2018-04-16T09:48:48.842Z,12.30
2018-04-16T09:51:15.275Z,13.33
2018-04-16T09:53:41.635Z,12.17
2018-04-16T09:56:08.435Z,11.13
2018-04-16T09:58:34.904Z,11.27
2018-04-16T10:01:01.334Z,11.83
2018-04-16T10:03:27.824Z,12.90
2018-04-16T10:05:54.276Z,11.10
2018-04-16T10:08:20.789Z,10.30
2018-04-16T10:10:47.257Z,11.03
2018-04-16T10:13:13.660Z,10.53
2018-04-16T10:15:40.015Z,11.90
2018-04-16T10:18:06.524Z,11.90
2018-04-16T10:20:32.838Z,10.27
2018-04-16T10:22:59.183Z,11.20
2018-04-16T10:25:25.546Z,11.93
2018-04-16T10:27:52.102Z,10.03
2018-04-16T10:30:18.542Z,11.03
2018-04-16T10:32:45.220Z,10.57
2018-04-16T10:35:11.645Z,10.83
2018-04-16T10:37:38.154Z,11.87
2018-04-16T10:40:04.604Z,11.20
2018-04-16T10:42:30.963Z,11.33
2018-04-16T10:44:57.440Z,12.47
2018-04-16T10:47:24.020Z,11.17
2018-04-16T10:49:50.450Z,12.37
2018-04-16T10:52:16.802Z,10.83
2018-04-16T10:54:43.259Z,11.67
2018-04-16T10:57:09.701Z,10.90
2018-04-16T10:59:36.108Z,11.10
2018-04-16T11:02:02.559Z,11.00
2018-04-16T11:04:28.944Z,11.40
2018-04-16T11:06:55.471Z,10.77
2018-04-16T11:09:21.904Z,9.90
2018-04-16T11:11:48.296Z,11.87
2018-04-16T11:14:14.779Z,10.40
2018-04-16T11:16:41.498Z,11.00
2018-04-16T11:19:07.912Z,10.83
2018-04-16T11:21:34.388Z,10.53
2018-04-16T11:24:00.832Z,9.47
2018-04-16T11:26:27.276Z,11.20
2018-04-16T11:28:53.732Z,10.33
2018-04-16T11:31:20.200Z,10.17
2018-04-16T11:33:46.559Z,11.23
2018-04-16T11:36:12.952Z,10.57
2018-04-16T11:38:39.454Z,10.57
2018-04-16T11:41:05.931Z,10.50
2018-04-16T11:43:32.273Z,10.63
2018-04-16T11:45:58.663Z,9.67
2018-04-16T11:48:25.636Z,10.77
2018-04-16T11:50:52.069Z,10.07
2018-04-16T11:53:18.667Z,10.00
2018-04-16T11:55:45.079Z,11.13
2018-04-16T11:58:11.485Z,11.10
2018-04-16T12:00:37.908Z,10.17
2018-04-16T12:03:04.230Z,10.23
2018-04-16T12:05:31.998Z,10.63
2018-04-16T12:08:01.542Z,9.83
2018-04-16T12:10:30.375Z,9.30
2018-04-16T12:12:58.602Z,9.73
2018-04-16T12:15:27.300Z,9.40
2018-04-16T12:17:55.307Z,9.97
2018-04-16T12:20:23.205Z,9.87
2018-04-16T12:22:51.760Z,10.03
2018-04-16T12:25:20.011Z,8.13
2018-04-16T12:27:47.664Z,9.80
2018-04-16T12:30:16.248Z,8.87
2018-04-16T12:32:44.929Z,9.27
2018-04-16T12:35:14.519Z,15.17
2018-04-16T12:37:43.023Z,8.67
2018-04-16T12:40:11.269Z,9.93
2018-04-16T12:42:39.706Z,9.47
2018-04-16T12:45:07.795Z,8.87
2018-04-16T12:47:35.078Z,9.43
2018-04-16T12:50:02.375Z,8.90
2018-04-16T12:52:28.887Z,9.17
2018-04-16T12:54:55.413Z,9.47
2018-04-16T12:57:22.734Z,9.33
2018-04-16T12:59:49.637Z,9.53
2018-04-16T13:02:17.352Z,9.53
2018-04-16T13:04:43.889Z,9.37
2018-04-16T13:07:10.379Z,9.87
2018-04-16T13:09:36.747Z,9.10
2018-04-16T13:12:03.087Z,9.53
2018-04-16T13:14:29.590Z,9.20
2018-04-16T13:16:56.049Z,9.17
2018-04-16T13:19:22.401Z,9.70
2018-04-16T13:21:48.770Z,7.13
2018-04-16T13:24:15.276Z,9.27
2018-04-16T13:26:41.777Z,7.40
2018-04-16T13:29:08.159Z,7.17
2018-04-16T13:31:34.513Z,7.80
2018-04-16T13:34:01.017Z,7.87
2018-04-16T13:36:27.501Z,8.00
2018-04-16T13:38:54.146Z,8.30
2018-04-16T13:41:20.640Z,8.37
2018-04-16T13:43:47.148Z,8.30
2018-04-16T13:46:13.459Z,8.97
2018-04-16T13:48:39.956Z,8.53
2018-04-16T13:51:06.375Z,8.50
2018-04-16T13:53:32.733Z,8.87
2018-04-16T13:55:59.117Z,8.93
2018-04-16T13:58:25.617Z,8.43
2018-04-16T14:00:51.965Z,8.90
2018-04-16T14:03:18.347Z,9.43
2018-04-16T14:05:44.839Z,8.60
2018-04-16T14:08:11.380Z,9.00
2018-04-16T14:10:37.705Z,9.27
2018-04-16T14:13:04.049Z,8.87
2018-04-16T14:15:30.469Z,9.73
2018-04-16T14:17:57.053Z,9.77
2018-04-16T14:20:23.486Z,9.07
2018-04-16T14:22:49.978Z,8.97
2018-04-16T14:25:16.350Z,8.53
2018-04-16T14:27:42.834Z,8.90
2018-04-16T14:41:40.023Z,8.57
2018-04-16T14:44:06.451Z,9.67
2018-04-16T14:46:32.905Z,8.67
2018-04-16T14:48:59.423Z,9.13
2018-04-16T14:51:25.826Z,7.77
2018-04-16T14:53:52.261Z,7.63
2018-04-16T14:56:18.709Z,8.40
2018-04-16T14:58:45.185Z,9.87
2018-04-16T15:01:11.713Z,9.00
2018-04-16T15:03:38.315Z,9.73
2018-04-16T15:06:04.712Z,7.77
2018-04-16T15:08:31.175Z,7.00
2018-04-16T15:10:57.573Z,7.40
2018-04-16T15:13:23.945Z,7.20
2018-04-16T15:15:50.402Z,7.30
2018-04-16T15:18:17.077Z,7.10
2018-04-16T15:20:43.455Z,7.97
2018-04-16T15:23:09.910Z,7.70
2018-04-16T15:25:36.447Z,7.70
2018-04-16T15:28:03.056Z,8.27
2018-04-16T15:30:29.500Z,7.97
2018-04-16T15:32:56.058Z,7.40
2018-04-16T15:35:22.529Z,8.97
2018-04-16T15:37:49.175Z,7.73
2018-04-16T15:40:15.682Z,8.53
2018-04-16T15:42:42.118Z,8.53
2018-04-16T15:45:08.635Z,8.63
2018-04-16T15:47:35.215Z,7.10
2018-04-16T15:50:01.573Z,7.93
2018-04-16T15:52:27.990Z,7.93
2018-04-16T15:54:54.669Z,7.90
2018-04-16T15:57:21.244Z,8.23
2018-04-16T15:59:47.706Z,8.23
2018-04-16T16:02:14.194Z,7.93
2018-04-16T16:04:40.568Z,8.43
2018-04-16T16:07:07.121Z,8.73
2018-04-16T16:09:33.560Z,8.40
2018-04-16T16:12:00.005Z,8.20
2018-04-16T16:14:26.551Z,9.27
2018-04-16T16:16:52.960Z,8.37
2018-04-16T16:19:19.428Z,8.80
2018-04-16T16:21:45.896Z,8.00
2018-04-16T16:24:12.674Z,7.60
2018-04-16T16:26:40.040Z,8.00
2018-04-16T16:29:06.525Z,8.63
2018-04-16T16:31:32.960Z,8.70
2018-04-16T16:33:59.507Z,9.27
2018-04-16T16:36:26.008Z,8.47
2018-04-16T16:38:52.588Z,8.67
2018-04-16T16:41:19.118Z,7.63
2018-04-16T16:43:45.666Z,8.10
2018-04-16T16:46:13.395Z,8.47
2018-04-16T16:48:40.288Z,9.47
2018-04-16T16:51:06.762Z,7.83
2018-04-16T16:53:33.232Z,7.57
2018-04-16T16:55:59.737Z,8.13
2018-04-16T16:58:26.222Z,8.23
2018-04-16T17:00:52.620Z,9.00
2018-04-16T17:03:19.054Z,8.87
2018-04-16T17:05:45.594Z,7.33
2018-04-16T17:08:12.330Z,8.47
2018-04-16T17:10:39.113Z,9.63
2018-04-16T17:13:05.774Z,8.77
2018-04-16T17:15:38.475Z,8.43
2018-04-16T17:18:05.032Z,9.00
2018-04-16T17:20:32.064Z,8.97
2018-04-16T17:22:58.605Z,8.80
2018-04-16T17:25:25.195Z,8.93
2018-04-16T17:27:51.752Z,9.50
2018-04-16T17:30:18.237Z,8.73
2018-04-16T17:32:44.889Z,8.60
2018-04-16T17:35:11.412Z,8.33
2018-04-16T17:37:38.297Z,8.93
2018-04-16T17:40:04.860Z,8.53
2018-04-16T17:42:31.417Z,9.53
2018-04-16T17:44:57.934Z,8.90
2018-04-16T17:47:24.447Z,8.70
2018-04-16T17:49:51.001Z,8.60
2018-04-16T17:52:18.045Z,9.27
2018-04-16T17:54:44.590Z,9.23
2018-04-16T17:57:12.073Z,9.33
2018-04-16T17:59:38.829Z,9.60
2018-04-16T18:02:05.313Z,9.10
2018-04-16T18:04:31.877Z,9.43
2018-04-16T18:06:58.394Z,8.43
2018-04-16T18:09:24.824Z,9.33
2018-04-16T18:11:51.545Z,9.70
2018-04-16T18:14:19.215Z,9.10
2018-04-16T18:16:46.010Z,8.97
2018-04-16T18:19:12.571Z,8.97
2018-04-16T18:21:39.155Z,8.83
2018-04-16T18:24:05.703Z,9.37
2018-04-16T18:26:32.122Z,9.70
2018-04-16T18:28:59.749Z,8.77
2018-04-16T18:31:26.550Z,8.70
2018-04-16T18:33:53.604Z,9.10
2018-04-16T18:36:20.373Z,9.07
2018-04-16T18:38:47.079Z,8.70
2018-04-16T18:41:13.643Z,9.73
2018-04-16T18:43:40.318Z,9.63
2018-04-16T18:46:06.822Z,8.57
2018-04-16T18:48:33.617Z,9.97
2018-04-16T18:51:00.257Z,10.37
2018-04-16T18:53:26.918Z,9.97
2018-04-16T18:55:53.458Z,9.17
2018-04-16T18:58:20.084Z,9.17
2018-04-16T19:00:46.559Z,9.80
2018-04-16T19:03:13.218Z,8.60
2018-04-16T19:05:39.769Z,10.43
2018-04-16T19:08:06.831Z,9.70
2018-04-16T19:10:34.527Z,9.17
2018-04-16T19:13:01.122Z,7.93
2018-04-16T19:15:27.543Z,7.70
2018-04-16T19:17:56.979Z,8.03
2018-04-16T19:20:29.612Z,7.87
2018-04-16T19:22:56.021Z,7.90
2018-04-16T19:25:22.882Z,7.67
2018-04-16T19:27:55.532Z,8.07
2018-04-16T19:30:22.071Z,7.33
2018-04-16T19:32:54.542Z,7.50
2018-04-16T19:35:21.125Z,7.80
2018-04-16T19:37:48.492Z,8.43
2018-04-16T19:40:15.189Z,7.80
2018-04-16T19:42:42.751Z,8.90
2018-04-16T19:45:09.134Z,7.60
2018-04-16T19:47:35.645Z,9.27
2018-04-16T19:50:04.259Z,8.70
2018-04-16T19:52:30.850Z,7.87
2018-04-16T19:54:57.403Z,8.50
2018-04-16T19:57:29.750Z,8.07
2018-04-16T19:59:56.127Z,7.90
2018-04-16T20:02:28.664Z,8.50
2018-04-16T20:04:55.386Z,7.97
2018-04-16T20:07:21.896Z,9.00
2018-04-16T20:09:48.340Z,8.30
2018-04-16T20:12:14.813Z,8.47
2018-04-16T20:14:41.496Z,8.80
2018-04-16T20:17:08.820Z,8.33
2018-04-16T20:19:36.881Z,8.50
2018-04-16T20:22:04.311Z,9.40
2018-04-16T20:24:31.246Z,8.90
2018-04-16T20:26:57.922Z,8.63
2018-04-16T20:29:24.424Z,7.60
2018-04-16T20:31:50.920Z,8.10
2018-04-16T20:34:17.409Z,7.87
2018-04-16T20:36:43.942Z,7.83
2018-04-16T20:39:10.590Z,7.73
2018-04-16T20:41:37.171Z,7.73
2018-04-16T20:44:04.116Z,7.67
2018-04-16T20:46:30.605Z,7.30
2018-04-16T20:48:57.167Z,7.40
2018-04-16T20:51:23.628Z,7.37
2018-04-16T20:53:50.290Z,8.30
2018-04-16T20:56:16.854Z,7.27
2018-04-16T20:58:43.496Z,8.20
2018-04-16T21:01:09.930Z,7.90
2018-04-16T21:03:36.426Z,7.80
2018-04-16T21:06:02.904Z,7.13
2018-04-16T21:08:30.432Z,7.90
2018-04-16T21:10:56.890Z,7.17
2018-04-16T21:13:23.343Z,7.90
2018-04-16T21:15:49.658Z,7.00
2018-04-16T21:18:16.123Z,7.73
2018-04-16T21:20:42.616Z,8.13
2018-04-16T21:23:09.061Z,8.43
2018-04-16T21:25:35.535Z,8.53
2018-04-16T21:28:02.255Z,7.43
2018-04-16T21:30:28.829Z,9.17
2018-04-16T21:32:55.392Z,9.40
2018-04-16T21:35:21.918Z,8.00
2018-04-16T21:37:48.638Z,8.87
2018-04-16T21:40:15.175Z,8.27
2018-04-16T21:42:41.605Z,8.47
2018-04-16T21:45:08.052Z,7.67
2018-04-16T21:47:34.570Z,8.43
2018-04-16T21:50:01.044Z,8.43
2018-04-16T21:52:27.538Z,8.13
2018-04-16T21:54:54.103Z,7.83
2018-04-16T21:57:20.715Z,7.47
2018-04-16T21:59:47.210Z,7.83
2018-04-16T22:02:14.320Z,7.63
2018-04-16T22:04:40.801Z,7.30
2018-04-16T22:07:07.488Z,7.47
2018-04-16T22:09:34.052Z,7.03
2018-04-16T22:12:00.396Z,8.17
2018-04-16T22:14:26.786Z,7.53
2018-04-16T22:16:53.146Z,7.60
2018-04-16T22:19:19.784Z,8.00
2018-04-16T22:21:46.145Z,7.73
2018-04-16T22:24:12.607Z,7.40
2018-04-16T22:26:38.992Z,8.53
2018-04-16T22:29:05.426Z,7.67
2018-04-16T22:31:31.870Z,8.30
2018-04-16T22:33:58.329Z,7.57
2018-04-16T22:36:24.750Z,8.43
2018-04-16T22:38:51.412Z,7.90
2018-04-16T22:41:17.741Z,7.23
2018-04-16T22:43:44.161Z,8.60
2018-04-16T22:46:10.561Z,8.73
2018-04-16T22:48:37.052Z,9.13
2018-04-16T22:51:03.471Z,9.17
2018-04-16T22:53:29.911Z,7.90
2018-04-16T22:55:56.384Z,8.10
2018-04-16T22:58:22.823Z,8.33
2018-04-16T23:00:49.231Z,8.40
2018-04-16T23:03:15.593Z,8.73
2018-04-16T23:05:41.975Z,9.23
2018-04-16T23:08:08.440Z,9.47
2018-04-16T23:10:34.771Z,9.80
2018-04-16T23:13:01.171Z,8.63
2018-04-16T23:15:27.603Z,9.53
2018-04-16T23:17:54.125Z,9.37
2018-04-16T23:20:20.653Z,9.27
2018-04-16T23:22:47.180Z,8.83
2018-04-16T23:25:13.602Z,8.83
2018-04-16T23:27:40.061Z,9.70
2018-04-16T23:30:06.434Z,10.10
2018-04-16T23:32:32.777Z,8.60
2018-04-16T23:34:59.122Z,8.83
2018-04-16T23:37:25.516Z,9.27
2018-04-16T23:39:51.895Z,9.43
2018-04-16T23:42:18.277Z,9.40
2018-04-16T23:44:44.679Z,10.60
2018-04-16T23:47:11.027Z,8.60
2018-04-16T23:49:37.429Z,9.33
2018-04-16T23:52:03.799Z,9.27
2018-04-16T23:54:30.219Z,8.03
2018-04-16T23:56:56.597Z,9.50
2018-04-16T23:59:23.035Z,9.67
